LNI110 WIII-OEJN
Flight info
| Callsign | LNI110 |
|---|---|
| Flight time | N/A |
| Altitude | 40000 |
| Route | RIMTI1E RIMTI M766 KAT P570 TVM UL425 ASPUX L425 GOBRO AMBIT L425 BOSUT BOSUT2L |
| Aircraft | A333/H-SDE3GHIJ2J3J5M1RVWXY/LB2D1 |
Departure
| Time | 2026-04-30 20:56 |
|---|---|
| Airport | Soekarno-Hatta International Airport (WIII) |
Arrival
| Time | N/A |
|---|---|
| Airport | King Abdulaziz International Airport (OEJN) |
| Time | Latitude | Longitude | Altitude | Speed | Heading |
|---|---|---|---|---|---|
| 2026-04-30 20:20 | -6.13304 | 106.65596 | 52 ft | 0 kts | 38° |
| 2026-04-30 20:44 | -6.13319 | 106.65585 | 51 ft | 3 kts | 41° |
| 2026-04-30 20:45 | -6.13343 | 106.65561 | 51 ft | 3 kts | 76° |
| 2026-04-30 20:45 | -6.13342 | 106.65545 | 51 ft | 3 kts | 121° |
| 2026-04-30 20:45 | -6.13330 | 106.65529 | 51 ft | 2 kts | 130° |
| 2026-04-30 20:46 | -6.13323 | 106.65520 | 51 ft | 0 kts | 129° |
| 2026-04-30 20:48 | -6.13336 | 106.65536 | 51 ft | 4 kts | 129° |
| 2026-04-30 20:48 | -6.13357 | 106.65561 | 51 ft | 6 kts | 129° |
| 2026-04-30 20:48 | -6.13384 | 106.65596 | 51 ft | 7 kts | 129° |
| 2026-04-30 20:48 | -6.13435 | 106.65627 | 51 ft | 11 kts | 156° |
| 2026-04-30 20:49 | -6.13511 | 106.65671 | 51 ft | 14 kts | 118° |
| 2026-04-30 20:49 | -6.13494 | 106.65781 | 51 ft | 19 kts | 68° |
| 2026-04-30 20:49 | -6.13447 | 106.65900 | 51 ft | 18 kts | 68° |
| 2026-04-30 20:50 | -6.13362 | 106.66114 | 51 ft | 16 kts | 68° |
| 2026-04-30 20:50 | -6.13321 | 106.66214 | 51 ft | 15 kts | 68° |
| 2026-04-30 20:50 | -6.13282 | 106.66309 | 51 ft | 14 kts | 68° |
| 2026-04-30 20:50 | -6.13246 | 106.66402 | 51 ft | 16 kts | 68° |
| 2026-04-30 20:51 | -6.13201 | 106.66516 | 51 ft | 18 kts | 68° |
| 2026-04-30 20:51 | -6.13097 | 106.66775 | 51 ft | 21 kts | 68° |
| 2026-04-30 20:51 | -6.13041 | 106.66917 | 51 ft | 22 kts | 68° |
| 2026-04-30 20:52 | -6.12983 | 106.67064 | 51 ft | 23 kts | 68° |
| 2026-04-30 20:52 | -6.12921 | 106.67218 | 51 ft | 24 kts | 67° |
| 2026-04-30 20:52 | -6.12947 | 106.67425 | 51 ft | 2 kts | 188° |
| 2026-04-30 20:53 | -6.12975 | 106.67420 | 51 ft | 6 kts | 190° |
| 2026-04-30 20:53 | -6.13023 | 106.67410 | 51 ft | 6 kts | 201° |
| 2026-04-30 20:53 | -6.13054 | 106.67369 | 51 ft | 8 kts | 246° |
| 2026-04-30 20:54 | -6.13068 | 106.67336 | 51 ft | 8 kts | 247° |
| 2026-04-30 20:54 | -6.13144 | 106.67152 | 51 ft | 50 kts | 249° |
| 2026-04-30 20:54 | -6.13321 | 106.66706 | 51 ft | 87 kts | 247° |
| 2026-04-30 20:55 | -6.13952 | 106.65125 | 51 ft | 156 kts | 248° |
| 2026-04-30 20:55 | -6.14377 | 106.64062 | 298 ft | 161 kts | 247° |
| 2026-04-30 20:55 | -6.14795 | 106.63008 | 604 ft | 164 kts | 247° |
| 2026-04-30 20:56 | -6.15681 | 106.60777 | 1006 ft | 190 kts | 247° |
| 2026-04-30 20:56 | -6.16205 | 106.59467 | 1110 ft | 213 kts | 247° |
| 2026-04-30 20:56 | -6.17426 | 106.56405 | 1373 ft | 256 kts | 248° |
| 2026-04-30 20:57 | -6.18091 | 106.54738 | 1989 ft | 257 kts | 248° |
| 2026-04-30 20:57 | -6.18143 | 106.54607 | 2030 ft | 257 kts | 248° |
| 2026-04-30 20:57 | -6.18765 | 106.53041 | 2523 ft | 261 kts | 247° |
| 2026-04-30 20:58 | -6.20114 | 106.49652 | 3267 ft | 270 kts | 247° |
| 2026-04-30 20:58 | -6.20814 | 106.47897 | 3904 ft | 272 kts | 248° |
| 2026-04-30 20:58 | -6.21520 | 106.46127 | 4493 ft | 274 kts | 248° |
| 2026-04-30 20:58 | -6.22084 | 106.44292 | 5058 ft | 277 kts | 262° |
| 2026-04-30 20:59 | -6.21375 | 106.40549 | 6149 ft | 280 kts | 303° |
| 2026-04-30 20:59 | -6.20130 | 106.39050 | 6755 ft | 279 kts | 314° |
| 2026-04-30 21:00 | -6.17399 | 106.36214 | 7831 ft | 285 kts | 315° |
| 2026-04-30 21:00 | -6.14562 | 106.33375 | 8886 ft | 290 kts | 316° |
| 2026-04-30 21:01 | -6.11675 | 106.30530 | 9890 ft | 295 kts | 316° |
| 2026-04-30 21:01 | -6.10174 | 106.29059 | 10274 ft | 304 kts | 316° |
| 2026-04-30 21:01 | -6.06956 | 106.25912 | 10443 ft | 341 kts | 316° |
| 2026-04-30 21:02 | -6.05238 | 106.24234 | 10526 ft | 359 kts | 316° |
| 2026-04-30 21:02 | -6.03409 | 106.22449 | 10816 ft | 368 kts | 316° |
| 2026-04-30 21:02 | -6.01563 | 106.20647 | 11401 ft | 370 kts | 316° |
| 2026-04-30 21:02 | -5.99706 | 106.18836 | 11919 ft | 374 kts | 316° |
| 2026-04-30 21:03 | -5.97826 | 106.17001 | 12459 ft | 376 kts | 316° |
| 2026-04-30 21:03 | -5.95939 | 106.15159 | 12987 ft | 379 kts | 316° |
| 2026-04-30 21:03 | -5.94062 | 106.13327 | 13512 ft | 382 kts | 316° |
| 2026-04-30 21:03 | -5.92148 | 106.11458 | 13997 ft | 385 kts | 316° |
| 2026-04-30 21:04 | -5.90213 | 106.09572 | 14518 ft | 388 kts | 316° |
| 2026-04-30 21:04 | -5.88265 | 106.07672 | 15013 ft | 391 kts | 316° |
| 2026-04-30 21:04 | -5.84362 | 106.03867 | 15982 ft | 396 kts | 317° |
| 2026-04-30 21:05 | -5.82375 | 106.01930 | 16460 ft | 399 kts | 317° |
| 2026-04-30 21:05 | -5.80377 | 105.99983 | 16928 ft | 401 kts | 317° |
| 2026-04-30 21:05 | -5.78358 | 105.98015 | 17385 ft | 404 kts | 317° |
| 2026-04-30 21:05 | -5.76355 | 105.96065 | 17828 ft | 406 kts | 317° |
| 2026-04-30 21:06 | -5.75002 | 105.94748 | 18116 ft | 409 kts | 317° |
| 2026-04-30 21:06 | -5.72951 | 105.92753 | 18542 ft | 411 kts | 317° |
| 2026-04-30 21:06 | -5.70888 | 105.90746 | 18948 ft | 415 kts | 317° |
| 2026-04-30 21:06 | -5.68801 | 105.88715 | 19353 ft | 418 kts | 317° |
| 2026-04-30 21:07 | -5.66711 | 105.86681 | 19751 ft | 421 kts | 317° |
| 2026-04-30 21:07 | -5.64594 | 105.84620 | 20136 ft | 424 kts | 317° |
| 2026-04-30 21:07 | -5.62466 | 105.82549 | 20520 ft | 427 kts | 317° |
| 2026-04-30 21:07 | -5.60325 | 105.80465 | 20880 ft | 430 kts | 317° |
| 2026-04-30 21:08 | -5.58171 | 105.78369 | 21246 ft | 432 kts | 317° |
| 2026-04-30 21:08 | -5.56028 | 105.76283 | 21596 ft | 435 kts | 317° |
| 2026-04-30 21:08 | -5.53849 | 105.74163 | 21941 ft | 438 kts | 317° |
| 2026-04-30 21:08 | -5.51649 | 105.72022 | 22283 ft | 441 kts | 317° |
| 2026-04-30 21:09 | -5.49438 | 105.69870 | 22606 ft | 443 kts | 317° |
| 2026-04-30 21:09 | -5.47238 | 105.67730 | 22922 ft | 446 kts | 317° |
| 2026-04-30 21:09 | -5.45052 | 105.65499 | 23235 ft | 449 kts | 312° |
| 2026-04-30 21:09 | -5.43158 | 105.62993 | 23539 ft | 452 kts | 303° |
| 2026-04-30 21:10 | -5.41637 | 105.60214 | 23837 ft | 456 kts | 295° |
| 2026-04-30 21:10 | -5.40450 | 105.57248 | 24141 ft | 458 kts | 291° |
| 2026-04-30 21:10 | -5.39298 | 105.54254 | 24447 ft | 460 kts | 291° |
| 2026-04-30 21:10 | -5.38145 | 105.51250 | 24750 ft | 462 kts | 291° |
| 2026-04-30 21:11 | -5.36993 | 105.48239 | 25047 ft | 464 kts | 291° |
| 2026-04-30 21:11 | -5.35848 | 105.45239 | 25337 ft | 466 kts | 291° |
| 2026-04-30 21:11 | -5.34686 | 105.42187 | 25627 ft | 468 kts | 291° |
| 2026-04-30 21:11 | -5.33523 | 105.39126 | 25908 ft | 470 kts | 291° |
| 2026-04-30 21:12 | -5.32358 | 105.36054 | 26192 ft | 471 kts | 291° |
| 2026-04-30 21:12 | -5.31191 | 105.32972 | 26479 ft | 473 kts | 291° |
| 2026-04-30 21:12 | -5.30021 | 105.29879 | 26748 ft | 475 kts | 291° |
| 2026-04-30 21:12 | -5.28847 | 105.26771 | 27014 ft | 477 kts | 291° |
| 2026-04-30 21:13 | -5.27687 | 105.23699 | 27260 ft | 479 kts | 291° |
| 2026-04-30 21:13 | -5.26503 | 105.20558 | 27499 ft | 481 kts | 291° |
| 2026-04-30 21:13 | -5.25164 | 105.17471 | 27772 ft | 481 kts | 296° |
| 2026-04-30 21:13 | -5.23708 | 105.14437 | 28017 ft | 483 kts | 297° |
| 2026-04-30 21:14 | -5.22238 | 105.11398 | 28274 ft | 485 kts | 297° |
| 2026-04-30 21:14 | -5.20764 | 105.08350 | 28523 ft | 486 kts | 297° |
| 2026-04-30 21:14 | -5.19300 | 105.05322 | 28761 ft | 488 kts | 297° |
| 2026-04-30 21:14 | -5.17814 | 105.02244 | 29004 ft | 490 kts | 297° |
| 2026-04-30 21:15 | -5.16327 | 104.99163 | 29238 ft | 491 kts | 297° |
| 2026-04-30 21:15 | -5.14832 | 104.96065 | 29471 ft | 493 kts | 297° |
| 2026-04-30 21:15 | -5.13336 | 104.92963 | 29695 ft | 494 kts | 297° |
| 2026-04-30 21:15 | -5.11839 | 104.89857 | 29933 ft | 496 kts | 297° |
| 2026-04-30 21:16 | -5.10335 | 104.86735 | 30146 ft | 497 kts | 297° |
| 2026-04-30 21:16 | -5.08842 | 104.83638 | 30367 ft | 499 kts | 297° |
| 2026-04-30 21:16 | -5.07323 | 104.80484 | 30578 ft | 500 kts | 297° |
| 2026-04-30 21:16 | -5.05803 | 104.77329 | 30774 ft | 502 kts | 297° |
| 2026-04-30 21:17 | -5.04301 | 104.74210 | 30985 ft | 503 kts | 297° |
| 2026-04-30 21:17 | -5.02774 | 104.71040 | 31175 ft | 505 kts | 297° |
| 2026-04-30 21:17 | -5.01243 | 104.67862 | 31361 ft | 506 kts | 297° |
| 2026-04-30 21:17 | -4.99706 | 104.64669 | 31562 ft | 507 kts | 297° |
| 2026-04-30 21:18 | -4.98166 | 104.61473 | 31745 ft | 509 kts | 297° |
| 2026-04-30 21:18 | -4.96638 | 104.58301 | 31922 ft | 510 kts | 297° |
| 2026-04-30 21:18 | -4.95094 | 104.55094 | 32154 ft | 510 kts | 297° |
| 2026-04-30 21:18 | -4.93551 | 104.51891 | 32392 ft | 510 kts | 297° |
| 2026-04-30 21:19 | -4.92005 | 104.48680 | 32641 ft | 510 kts | 297° |
| 2026-04-30 21:19 | -4.90454 | 104.45484 | 32897 ft | 509 kts | 297° |
| 2026-04-30 21:19 | -4.88909 | 104.42338 | 33137 ft | 508 kts | 297° |
| 2026-04-30 21:19 | -4.87348 | 104.39160 | 33376 ft | 508 kts | 297° |
| 2026-04-30 21:20 | -4.85785 | 104.35980 | 33615 ft | 507 kts | 297° |
| 2026-04-30 21:20 | -4.84226 | 104.32805 | 33855 ft | 507 kts | 297° |
| 2026-04-30 21:20 | -4.82670 | 104.29636 | 34084 ft | 506 kts | 297° |
| 2026-04-30 21:20 | -4.81112 | 104.26463 | 34314 ft | 506 kts | 297° |
| 2026-04-30 21:21 | -4.79557 | 104.23293 | 34531 ft | 505 kts | 297° |
| 2026-04-30 21:21 | -4.78025 | 104.20173 | 34747 ft | 505 kts | 297° |
| 2026-04-30 21:21 | -4.74923 | 104.13852 | 35165 ft | 504 kts | 297° |
| 2026-04-30 21:22 | -4.73372 | 104.10693 | 35372 ft | 504 kts | 297° |
| 2026-04-30 21:22 | -4.68734 | 104.01245 | 35972 ft | 502 kts | 297° |
| 2026-04-30 21:23 | -4.67209 | 103.98136 | 36163 ft | 502 kts | 297° |
| 2026-04-30 21:23 | -4.65667 | 103.94997 | 36346 ft | 501 kts | 297° |
| 2026-04-30 21:23 | -4.62582 | 103.88714 | 36713 ft | 500 kts | 297° |
| 2026-04-30 21:24 | -4.61041 | 103.85576 | 36890 ft | 500 kts | 297° |
| 2026-04-30 21:24 | -4.59523 | 103.82486 | 37057 ft | 500 kts | 297° |
| 2026-04-30 21:24 | -4.57989 | 103.79362 | 37222 ft | 499 kts | 297° |
| 2026-04-30 21:24 | -4.56451 | 103.76232 | 37392 ft | 499 kts | 297° |
| 2026-04-30 21:25 | -4.53384 | 103.69989 | 37703 ft | 498 kts | 297° |
| 2026-04-30 21:25 | -4.51873 | 103.66914 | 37847 ft | 497 kts | 296° |
| 2026-04-30 21:25 | -4.50337 | 103.63790 | 37988 ft | 497 kts | 296° |
| 2026-04-30 21:26 | -4.47281 | 103.57574 | 38259 ft | 496 kts | 296° |
| 2026-04-30 21:26 | -4.45756 | 103.54472 | 38387 ft | 496 kts | 296° |
| 2026-04-30 21:27 | -4.42703 | 103.48264 | 38635 ft | 495 kts | 296° |
| 2026-04-30 21:27 | -4.41199 | 103.45207 | 38751 ft | 495 kts | 296° |
| 2026-04-30 21:27 | -4.39669 | 103.42098 | 38865 ft | 495 kts | 296° |
| 2026-04-30 21:28 | -4.36626 | 103.35914 | 39079 ft | 494 kts | 296° |
| 2026-04-30 21:28 | -4.35123 | 103.32861 | 39182 ft | 494 kts | 296° |
| 2026-04-30 21:28 | -4.32076 | 103.26671 | 39341 ft | 494 kts | 296° |
| 2026-04-30 21:29 | -4.30558 | 103.23587 | 39440 ft | 494 kts | 296° |
| 2026-04-30 21:29 | -4.26023 | 103.14379 | 39846 ft | 489 kts | 297° |
| 2026-04-30 21:30 | -4.23011 | 103.08266 | 39863 ft | 492 kts | 297° |
| 2026-04-30 21:31 | -4.15400 | 102.92826 | 39864 ft | 495 kts | 297° |
| 2026-04-30 21:32 | -4.10824 | 102.83547 | 39864 ft | 493 kts | 297° |
| 2026-04-30 21:32 | -4.07798 | 102.77412 | 39865 ft | 493 kts | 297° |
| 2026-04-30 21:33 | -4.03237 | 102.68170 | 39865 ft | 495 kts | 297° |
| 2026-04-30 21:34 | -4.00176 | 102.61969 | 39865 ft | 495 kts | 297° |
| 2026-04-30 21:34 | -3.95598 | 102.52697 | 39866 ft | 496 kts | 297° |
| 2026-04-30 21:35 | -3.92538 | 102.46502 | 39866 ft | 496 kts | 297° |
| 2026-04-30 21:35 | -3.89477 | 102.40305 | 39866 ft | 496 kts | 297° |
| 2026-04-30 21:36 | -3.86421 | 102.34116 | 39866 ft | 495 kts | 297° |
| 2026-04-30 21:37 | -3.80278 | 102.21769 | 39867 ft | 496 kts | 297° |
| 2026-04-30 21:37 | -3.77315 | 102.15805 | 39867 ft | 496 kts | 297° |
| 2026-04-30 21:38 | -3.74265 | 102.09663 | 39867 ft | 496 kts | 297° |
| 2026-04-30 21:38 | -3.71190 | 102.03470 | 39867 ft | 496 kts | 297° |
| 2026-04-30 21:39 | -3.68114 | 101.97272 | 39868 ft | 496 kts | 297° |
| 2026-04-30 21:39 | -3.65063 | 101.91125 | 39868 ft | 495 kts | 297° |
| 2026-04-30 21:40 | -3.61993 | 101.84941 | 39868 ft | 495 kts | 297° |
| 2026-04-30 21:40 | -3.58921 | 101.78752 | 39868 ft | 496 kts | 297° |
| 2026-04-30 21:41 | -3.55864 | 101.72593 | 39869 ft | 496 kts | 297° |
| 2026-04-30 21:41 | -3.52779 | 101.66381 | 39869 ft | 497 kts | 297° |
| 2026-04-30 21:42 | -3.49712 | 101.60205 | 39869 ft | 497 kts | 297° |
| 2026-04-30 21:42 | -3.46631 | 101.54002 | 39869 ft | 497 kts | 297° |
| 2026-04-30 21:43 | -3.44073 | 101.48852 | 39869 ft | 496 kts | 297° |
| 2026-04-30 21:43 | -3.40494 | 101.41647 | 39869 ft | 496 kts | 297° |
| 2026-04-30 21:44 | -3.37418 | 101.35458 | 39870 ft | 497 kts | 297° |
| 2026-04-30 21:44 | -3.34342 | 101.29269 | 39870 ft | 498 kts | 297° |
| 2026-04-30 21:45 | -3.31252 | 101.23055 | 39870 ft | 498 kts | 297° |
| 2026-04-30 21:45 | -3.28162 | 101.16840 | 39870 ft | 497 kts | 297° |
| 2026-04-30 21:46 | -3.25097 | 101.10677 | 39870 ft | 497 kts | 297° |
| 2026-04-30 21:46 | -3.22008 | 101.04468 | 39870 ft | 497 kts | 297° |
| 2026-04-30 21:47 | -3.18937 | 100.98296 | 39866 ft | 498 kts | 297° |
| 2026-04-30 21:47 | -3.15843 | 100.92079 | 39864 ft | 499 kts | 297° |
| 2026-04-30 21:48 | -3.12750 | 100.85864 | 39864 ft | 499 kts | 297° |
| 2026-04-30 21:48 | -3.09652 | 100.79641 | 39864 ft | 498 kts | 297° |
| 2026-04-30 21:49 | -3.06572 | 100.73457 | 39864 ft | 498 kts | 297° |
| 2026-04-30 21:49 | -3.03484 | 100.67256 | 39865 ft | 498 kts | 297° |
| 2026-04-30 21:50 | -3.00390 | 100.61045 | 39865 ft | 498 kts | 297° |
| 2026-04-30 21:50 | -2.97312 | 100.54868 | 39865 ft | 498 kts | 297° |
| 2026-04-30 21:51 | -2.94207 | 100.48636 | 39856 ft | 498 kts | 297° |
| 2026-04-30 21:51 | -2.91133 | 100.42469 | 39856 ft | 498 kts | 297° |
| 2026-04-30 21:52 | -2.88030 | 100.36242 | 39861 ft | 500 kts | 297° |
| 2026-04-30 21:52 | -2.84938 | 100.30042 | 39863 ft | 499 kts | 297° |
| 2026-04-30 21:53 | -2.81842 | 100.23833 | 39890 ft | 497 kts | 297° |
| 2026-04-30 21:53 | -2.79268 | 100.18671 | 39900 ft | 498 kts | 297° |
| 2026-04-30 21:54 | -2.76185 | 100.12491 | 39901 ft | 499 kts | 297° |
| 2026-04-30 21:54 | -2.73081 | 100.06268 | 39901 ft | 499 kts | 297° |
| 2026-04-30 21:55 | -2.69969 | 100.00032 | 39901 ft | 499 kts | 297° |
| 2026-04-30 21:55 | -2.66893 | 99.93867 | 39901 ft | 498 kts | 297° |
| 2026-04-30 21:56 | -2.63787 | 99.87645 | 39901 ft | 498 kts | 297° |
| 2026-04-30 21:56 | -2.60714 | 99.81489 | 39901 ft | 498 kts | 297° |
| 2026-04-30 21:57 | -2.57615 | 99.75282 | 39901 ft | 498 kts | 297° |
| 2026-04-30 21:57 | -2.54510 | 99.69063 | 39901 ft | 498 kts | 297° |
| 2026-04-30 21:58 | -2.51406 | 99.62849 | 39902 ft | 498 kts | 297° |
| 2026-04-30 21:58 | -2.48325 | 99.56680 | 39902 ft | 498 kts | 297° |
| 2026-04-30 21:59 | -2.45324 | 99.50421 | 39902 ft | 498 kts | 296° |
| 2026-04-30 22:00 | -2.40883 | 99.41043 | 39903 ft | 498 kts | 296° |
| 2026-04-30 22:00 | -2.36427 | 99.31624 | 39904 ft | 498 kts | 296° |
| 2026-04-30 22:01 | -2.33478 | 99.25389 | 39948 ft | 503 kts | 296° |
| 2026-04-30 22:01 | -2.31959 | 99.22179 | 39920 ft | 514 kts | 296° |
| 2026-04-30 22:01 | -2.30416 | 99.18916 | 39907 ft | 523 kts | 296° |
| 2026-04-30 22:02 | -2.27264 | 99.12247 | 39996 ft | 533 kts | 296° |
| 2026-04-30 22:02 | -2.24112 | 99.05579 | 39942 ft | 533 kts | 296° |
| 2026-04-30 22:03 | -2.20940 | 98.98868 | 39988 ft | 531 kts | 296° |
| 2026-04-30 22:03 | -2.17796 | 98.92217 | 39884 ft | 532 kts | 296° |
| 2026-04-30 22:04 | -2.14635 | 98.85532 | 40187 ft | 521 kts | 296° |
| 2026-04-30 22:04 | -2.11651 | 98.79215 | 40579 ft | 502 kts | 296° |
| 2026-04-30 22:05 | -2.10150 | 98.76045 | 40064 ft | 515 kts | 296° |
| 2026-04-30 22:05 | -2.08613 | 98.72797 | 39925 ft | 516 kts | 296° |
| 2026-04-30 22:05 | -2.07076 | 98.69547 | 39893 ft | 517 kts | 296° |
| 2026-04-30 22:06 | -2.03987 | 98.63018 | 39876 ft | 520 kts | 296° |
| 2026-04-30 22:06 | -1.99347 | 98.53210 | 39874 ft | 524 kts | 296° |
| 2026-04-30 22:07 | -1.96215 | 98.46593 | 39873 ft | 527 kts | 296° |
| 2026-04-30 22:07 | -1.93072 | 98.39950 | 39873 ft | 529 kts | 296° |
| 2026-04-30 22:08 | -1.89930 | 98.33312 | 39906 ft | 531 kts | 296° |
| 2026-04-30 22:08 | -1.86767 | 98.26628 | 39900 ft | 532 kts | 296° |
| 2026-04-30 22:09 | -1.83597 | 98.19933 | 39900 ft | 532 kts | 296° |
| 2026-04-30 22:09 | -1.80435 | 98.13252 | 39911 ft | 531 kts | 296° |
| 2026-04-30 22:10 | -1.77264 | 98.06556 | 39907 ft | 532 kts | 296° |
| 2026-04-30 22:10 | -1.74114 | 97.99905 | 39904 ft | 532 kts | 296° |
| 2026-04-30 22:11 | -1.69359 | 97.89865 | 39905 ft | 532 kts | 296° |
| 2026-04-30 22:12 | -1.66208 | 97.83213 | 39908 ft | 532 kts | 296° |
| 2026-04-30 22:12 | -1.63041 | 97.76528 | 39928 ft | 531 kts | 296° |
| 2026-04-30 22:13 | -1.59884 | 97.69864 | 39889 ft | 529 kts | 296° |
| 2026-04-30 22:13 | -1.56687 | 97.63271 | 39872 ft | 531 kts | 297° |
| 2026-04-30 22:14 | -1.53436 | 97.56623 | 39902 ft | 532 kts | 297° |
| 2026-04-30 22:14 | -1.50181 | 97.49961 | 39925 ft | 531 kts | 297° |
| 2026-04-30 22:15 | -1.46953 | 97.43353 | 39893 ft | 532 kts | 297° |
| 2026-04-30 22:15 | -1.43701 | 97.36692 | 39900 ft | 532 kts | 297° |
| 2026-04-30 22:16 | -1.40472 | 97.30075 | 39905 ft | 532 kts | 297° |
| 2026-04-30 22:17 | -1.33991 | 97.16795 | 39895 ft | 531 kts | 297° |
| 2026-04-30 22:17 | -1.29146 | 97.06867 | 39908 ft | 531 kts | 297° |
| 2026-04-30 22:18 | -1.24271 | 96.96879 | 39909 ft | 532 kts | 297° |
| 2026-04-30 22:19 | -1.19422 | 96.86945 | 39907 ft | 532 kts | 297° |
| 2026-04-30 22:20 | -1.14567 | 96.76998 | 39898 ft | 532 kts | 297° |
| 2026-04-30 22:20 | -1.09683 | 96.66993 | 39904 ft | 533 kts | 297° |
| 2026-04-30 22:21 | -1.06426 | 96.60323 | 39901 ft | 533 kts | 297° |
| 2026-04-30 22:21 | -1.03190 | 96.53695 | 39896 ft | 533 kts | 296° |
| 2026-04-30 22:22 | -0.99935 | 96.47029 | 39898 ft | 533 kts | 296° |
| 2026-04-30 22:22 | -0.96680 | 96.40363 | 39901 ft | 533 kts | 296° |
| 2026-04-30 22:23 | -0.93443 | 96.33735 | 39897 ft | 533 kts | 297° |
| 2026-04-30 22:23 | -0.90183 | 96.27060 | 39880 ft | 534 kts | 297° |
| 2026-04-30 22:24 | -0.86921 | 96.20381 | 39894 ft | 534 kts | 297° |
| 2026-04-30 22:24 | -0.83659 | 96.13703 | 39903 ft | 534 kts | 297° |
| 2026-04-30 22:25 | -0.80402 | 96.07036 | 39894 ft | 534 kts | 297° |
| 2026-04-30 22:25 | -0.77162 | 96.00402 | 39905 ft | 534 kts | 297° |
| 2026-04-30 22:26 | -0.72272 | 95.90397 | 40017 ft | 534 kts | 296° |
| 2026-04-30 22:27 | -0.69010 | 95.83719 | 39970 ft | 534 kts | 296° |
| 2026-04-30 22:27 | -0.64132 | 95.73734 | 39988 ft | 535 kts | 296° |
| 2026-04-30 22:28 | -0.59231 | 95.63703 | 39992 ft | 535 kts | 296° |
| 2026-04-30 22:29 | -0.52712 | 95.50362 | 39996 ft | 535 kts | 296° |
| 2026-04-30 22:31 | -0.41323 | 95.27058 | 40027 ft | 534 kts | 296° |
| 2026-04-30 22:32 | -0.33201 | 95.10438 | 40057 ft | 532 kts | 296° |
| 2026-04-30 22:33 | -0.25067 | 94.93816 | 40007 ft | 531 kts | 296° |
| 2026-04-30 22:35 | -0.16989 | 94.77302 | 40064 ft | 530 kts | 296° |
| 2026-04-30 22:36 | -0.08913 | 94.60784 | 40015 ft | 528 kts | 296° |
| 2026-04-30 22:37 | -0.02450 | 94.47564 | 40021 ft | 528 kts | 296° |
| 2026-04-30 22:38 | 0.03981 | 94.34409 | 40018 ft | 528 kts | 296° |
| 2026-04-30 22:39 | 0.08812 | 94.24526 | 40014 ft | 527 kts | 296° |
| 2026-04-30 22:40 | 0.17917 | 94.05900 | 40026 ft | 527 kts | 296° |
| 2026-04-30 22:41 | 0.25951 | 93.89464 | 40026 ft | 527 kts | 296° |
| 2026-04-30 22:42 | 0.32389 | 93.76292 | 39868 ft | 527 kts | 296° |
| 2026-04-30 22:43 | 0.35592 | 93.69737 | 39867 ft | 527 kts | 296° |
| 2026-04-30 22:44 | 0.42020 | 93.56555 | 39859 ft | 526 kts | 296° |
| 2026-04-30 22:45 | 0.51611 | 93.36892 | 39869 ft | 526 kts | 296° |
| 2026-04-30 22:47 | 0.61227 | 93.17178 | 39881 ft | 524 kts | 296° |
| 2026-04-30 22:48 | 0.67611 | 93.04087 | 39864 ft | 525 kts | 296° |
| 2026-04-30 22:49 | 0.77180 | 92.84464 | 39867 ft | 524 kts | 296° |
| 2026-04-30 22:51 | 0.86747 | 92.64844 | 39896 ft | 523 kts | 296° |
| 2026-04-30 22:52 | 0.91524 | 92.55045 | 39886 ft | 522 kts | 296° |
| 2026-04-30 22:53 | 0.97870 | 92.42028 | 39912 ft | 521 kts | 296° |
| 2026-04-30 22:53 | 1.02633 | 92.32256 | 39902 ft | 521 kts | 296° |
| 2026-04-30 22:55 | 1.10551 | 92.16010 | 39907 ft | 519 kts | 296° |
| 2026-04-30 22:56 | 1.16873 | 92.03036 | 39920 ft | 518 kts | 296° |
| 2026-04-30 22:57 | 1.24838 | 91.86944 | 39894 ft | 516 kts | 296° |
| 2026-04-30 22:58 | 1.31225 | 91.74103 | 39903 ft | 516 kts | 296° |
| 2026-04-30 22:59 | 1.40800 | 91.54842 | 39900 ft | 516 kts | 296° |